createdAt,value
2018-08-02T00:01:04.974Z,99.90
2018-08-02T00:03:33.993Z,99.90
2018-08-02T00:06:02.993Z,99.90
2018-08-02T00:08:31.983Z,99.90
2018-08-02T00:11:01.019Z,99.90
2018-08-02T00:13:30.002Z,99.90
2018-08-02T00:15:59.074Z,99.90
2018-08-02T00:18:28.077Z,99.90
2018-08-02T00:20:57.072Z,99.90
2018-08-02T00:23:26.084Z,99.90
2018-08-02T00:25:55.065Z,99.90
2018-08-02T00:28:24.072Z,99.90
2018-08-02T00:30:53.097Z,99.90
2018-08-02T00:33:22.136Z,99.90
2018-08-02T00:35:51.166Z,99.90
2018-08-02T00:38:20.215Z,99.90
2018-08-02T00:40:49.244Z,99.90
2018-08-02T00:43:18.278Z,99.90
2018-08-02T00:45:47.306Z,99.90
2018-08-02T00:48:16.372Z,99.90
2018-08-02T00:50:45.354Z,99.90
2018-08-02T00:53:14.402Z,99.90
2018-08-02T00:58:12.115Z,99.90
2018-08-02T01:00:41.158Z,99.90
2018-08-02T01:03:10.245Z,99.90
2018-08-02T01:05:39.254Z,99.90
2018-08-02T01:08:08.277Z,99.90
2018-08-02T01:10:37.276Z,99.90
2018-08-02T01:13:06.573Z,99.90
2018-08-02T01:15:35.694Z,99.90
2018-08-02T01:18:04.749Z,99.90
2018-08-02T01:20:33.932Z,99.90
2018-08-02T01:23:03.107Z,99.90
2018-08-02T01:25:32.119Z,99.90
2018-08-02T01:28:01.147Z,99.90
2018-08-02T01:30:30.157Z,99.90
2018-08-02T01:32:59.165Z,99.90
2018-08-02T01:35:28.192Z,99.90
2018-08-02T01:37:57.270Z,99.90
2018-08-02T01:40:26.305Z,99.90
2018-08-02T01:42:55.330Z,99.90
2018-08-02T01:45:24.371Z,99.90
2018-08-02T01:47:53.400Z,99.90
2018-08-02T01:52:51.094Z,99.90
2018-08-02T01:55:20.168Z,99.90
2018-08-02T01:57:49.183Z,99.90
2018-08-02T02:00:18.171Z,99.90
2018-08-02T02:02:47.177Z,99.90
2018-08-02T02:05:16.194Z,99.90
2018-08-02T02:07:45.275Z,99.90
2018-08-02T02:10:14.249Z,99.90
2018-08-02T02:12:43.265Z,99.90
2018-08-02T02:15:12.288Z,99.90
2018-08-02T02:17:41.296Z,99.90
2018-08-02T02:22:38.926Z,99.90
2018-08-02T02:25:07.972Z,99.90
2018-08-02T02:27:37.002Z,99.90
2018-08-02T02:30:06.421Z,99.90
2018-08-02T02:32:35.833Z,99.90
2018-08-02T02:35:05.221Z,99.90
2018-08-02T02:37:34.346Z,99.90
2018-08-02T02:40:03.357Z,99.90
2018-08-02T02:42:32.372Z,99.90
2018-08-02T02:45:01.411Z,99.90
2018-08-02T02:47:30.458Z,99.90
2018-08-02T02:49:59.498Z,99.90
2018-08-02T02:52:28.526Z,99.90
2018-08-02T02:54:57.523Z,99.90
2018-08-02T02:59:55.556Z,99.90
2018-08-02T03:02:24.552Z,99.90
2018-08-02T03:04:53.547Z,99.90
2018-08-02T03:07:22.555Z,99.90
2018-08-02T03:09:51.563Z,99.90
2018-08-02T03:12:20.620Z,99.90
2018-08-02T03:14:49.621Z,99.90
2018-08-02T03:17:18.671Z,99.90
2018-08-02T03:19:47.670Z,99.90
2018-08-02T03:22:16.664Z,99.90
2018-08-02T03:27:14.293Z,99.90
2018-08-02T03:29:43.290Z,99.90
2018-08-02T03:32:12.328Z,99.90
2018-08-02T03:34:41.337Z,99.90
2018-08-02T03:37:11.229Z,99.90
2018-08-02T03:42:08.869Z,99.90
2018-08-02T03:44:37.896Z,99.90
2018-08-02T03:49:35.577Z,99.90
2018-08-02T03:54:33.383Z,99.90
2018-08-02T03:57:02.344Z,99.90
2018-08-02T03:59:31.363Z,99.90
2018-08-02T04:02:00.353Z,99.90
2018-08-02T04:04:29.388Z,99.90
2018-08-02T04:06:58.417Z,99.90
2018-08-02T04:09:27.421Z,99.90
2018-08-02T04:11:56.454Z,99.90
2018-08-02T04:14:25.477Z,99.90
2018-08-02T04:16:54.504Z,99.90
2018-08-02T04:19:23.539Z,99.90
2018-08-02T04:21:52.533Z,99.90
2018-08-02T04:24:21.537Z,99.90
2018-08-02T04:26:50.585Z,99.90
2018-08-02T04:29:19.613Z,99.90
2018-08-02T04:31:48.784Z,99.90
2018-08-02T04:34:17.806Z,99.90
2018-08-02T04:36:46.816Z,99.90
2018-08-02T04:39:15.892Z,99.90
2018-08-02T04:41:44.920Z,99.90
2018-08-02T04:44:13.924Z,99.90
2018-08-02T04:49:11.787Z,99.90
2018-08-02T04:51:40.781Z,99.90
2018-08-02T04:54:09.796Z,99.90
2018-08-02T04:59:07.450Z,99.90
2018-08-02T05:01:36.795Z,99.90
2018-08-02T05:04:05.899Z,99.90
2018-08-02T05:06:34.997Z,99.90
2018-08-02T05:11:34.665Z,99.90
2018-08-02T05:14:03.689Z,99.90
2018-08-02T05:16:32.703Z,99.90
2018-08-02T05:21:30.374Z,99.90
2018-08-02T05:23:59.399Z,99.90
2018-08-02T05:26:28.431Z,99.90
2018-08-02T05:28:57.444Z,99.90
2018-08-02T05:31:26.486Z,99.90
2018-08-02T05:33:55.812Z,99.90
2018-08-02T05:36:25.244Z,99.90
2018-08-02T05:38:53.825Z,99.90
2018-08-02T05:41:22.961Z,99.90
2018-08-02T05:43:52.322Z,99.90
2018-08-02T05:46:21.313Z,99.90
2018-08-02T05:48:50.369Z,99.90
2018-08-02T05:51:19.398Z,99.90
2018-08-02T05:53:48.425Z,99.90
2018-08-02T05:56:17.433Z,99.90
2018-08-02T05:58:46.462Z,99.90
2018-08-02T06:01:15.473Z,99.90
2018-08-02T06:06:13.130Z,99.90
2018-08-02T06:08:42.215Z,99.90
2018-08-02T06:11:11.228Z,99.90
2018-08-02T06:16:08.952Z,99.90
2018-08-02T06:18:38.002Z,99.90
2018-08-02T06:21:07.075Z,99.90
2018-08-02T06:23:36.085Z,99.90
2018-08-02T06:26:05.078Z,99.90
2018-08-02T06:28:34.120Z,99.90
2018-08-02T06:31:03.155Z,99.90
2018-08-02T06:33:32.251Z,99.90
2018-08-02T06:36:01.265Z,99.90
2018-08-02T06:38:30.263Z,99.90
2018-08-02T06:40:59.334Z,99.90
2018-08-02T06:43:40.936Z,99.90
2018-08-02T06:46:12.058Z,99.90
2018-08-02T06:48:40.153Z,99.90
2018-08-02T06:51:09.365Z,99.90
2018-08-02T06:56:07.045Z,99.90
2018-08-02T06:58:36.130Z,99.90
2018-08-02T07:03:33.838Z,99.90
2018-08-02T07:06:02.970Z,99.90
2018-08-02T07:08:31.992Z,99.90
2018-08-02T07:11:01.076Z,99.90
2018-08-02T07:13:30.218Z,99.90
2018-08-02T07:15:59.226Z,99.90
2018-08-02T07:18:28.259Z,99.90
2018-08-02T07:20:57.313Z,99.90
2018-08-02T07:23:26.338Z,99.90
2018-08-02T07:25:55.386Z,99.90
2018-08-02T07:28:24.431Z,99.90
2018-08-02T07:30:53.873Z,99.90
2018-08-02T07:33:22.987Z,99.90
2018-08-02T07:35:52.122Z,99.90
2018-08-02T07:38:21.143Z,99.90
2018-08-02T07:43:19.000Z,99.90
2018-08-02T07:45:47.869Z,99.90
2018-08-02T07:48:16.901Z,99.90
2018-08-02T07:50:45.936Z,99.90
2018-08-02T07:53:15.008Z,99.90
2018-08-02T07:58:12.639Z,99.90
2018-08-02T08:00:41.704Z,99.90
2018-08-02T08:03:10.923Z,99.90
2018-08-02T08:05:40.025Z,99.90
2018-08-02T08:08:09.232Z,99.90
2018-08-02T08:10:38.244Z,99.90
2018-08-02T08:13:07.266Z,99.90
2018-08-02T08:15:36.406Z,99.90
2018-08-02T08:18:05.401Z,99.90
2018-08-02T08:20:35.025Z,99.90
2018-08-02T08:23:04.147Z,99.90
2018-08-02T08:25:33.262Z,99.60
2018-08-02T08:28:02.533Z,99.90
2018-08-02T08:30:31.572Z,99.90
2018-08-02T08:33:01.851Z,99.90
2018-08-02T08:35:30.860Z,99.90
2018-08-02T08:37:59.912Z,96.90
2018-08-02T08:40:28.991Z,97.70
2018-08-02T08:42:58.005Z,98.70
2018-08-02T08:45:27.160Z,98.50
2018-08-02T08:47:56.764Z,97.80
2018-08-02T08:50:25.783Z,98.50
2018-08-02T08:52:54.873Z,96.50
2018-08-02T08:55:23.994Z,96.80
2018-08-02T08:57:53.005Z,99.40
2018-08-02T09:00:22.168Z,99.90
2018-08-02T09:02:51.253Z,97.40
2018-08-02T09:05:20.307Z,95.40
2018-08-02T09:07:49.321Z,94.90
2018-08-02T09:10:18.358Z,93.00
2018-08-02T09:12:47.370Z,93.60
2018-08-02T09:15:16.464Z,93.40
2018-08-02T09:17:45.535Z,93.70
2018-08-02T09:20:15.345Z,93.70
2018-08-02T09:22:44.425Z,95.40
2018-08-02T09:25:13.555Z,93.00
2018-08-02T09:30:11.296Z,92.50
2018-08-02T09:32:40.475Z,93.20
2018-08-02T09:35:09.486Z,93.90
2018-08-02T09:37:38.504Z,90.60
2018-08-02T09:40:07.589Z,92.20
2018-08-02T09:42:36.643Z,90.70
2018-08-02T09:45:06.064Z,90.20
2018-08-02T09:47:35.370Z,92.10
2018-08-02T09:50:04.648Z,91.40
2018-08-02T09:52:33.717Z,91.90
2018-08-02T09:55:02.824Z,91.70
2018-08-02T09:57:32.563Z,83.40
2018-08-02T10:00:01.617Z,86.00
2018-08-02T10:02:30.648Z,90.30
2018-08-02T10:04:59.654Z,87.60
2018-08-02T10:07:28.800Z,85.40
2018-08-02T10:09:58.031Z,88.10
2018-08-02T10:12:27.084Z,86.60
2018-08-02T10:14:56.184Z,85.90
2018-08-02T10:17:25.236Z,88.80
2018-08-02T10:19:54.298Z,91.30
2018-08-02T10:22:23.385Z,86.30
2018-08-02T10:24:52.553Z,79.70
2018-08-02T10:27:21.711Z,81.40
2018-08-02T10:29:50.786Z,81.70
2018-08-02T10:32:19.782Z,89.20
2018-08-02T10:34:48.878Z,75.30
2018-08-02T10:37:17.886Z,76.20
2018-08-02T10:39:47.054Z,82.50
2018-08-02T10:42:16.073Z,78.50
2018-08-02T10:44:45.168Z,81.30
2018-08-02T10:47:14.170Z,81.60
2018-08-02T10:49:43.205Z,72.60
2018-08-02T10:52:13.184Z,70.40
2018-08-02T10:54:42.355Z,74.70
2018-08-02T10:57:11.381Z,69.50
2018-08-02T10:59:40.419Z,72.40
2018-08-02T11:02:09.567Z,84.70
2018-08-02T11:04:38.536Z,74.90
2018-08-02T11:07:07.768Z,74.60
2018-08-02T11:09:36.806Z,67.30
2018-08-02T11:12:05.821Z,68.40
2018-08-02T11:14:34.883Z,68.10
2018-08-02T11:17:03.999Z,74.10
2018-08-02T11:19:33.092Z,69.90
2018-08-02T11:22:02.290Z,70.00
2018-08-02T11:24:31.317Z,67.40
2018-08-02T11:27:00.386Z,69.20
2018-08-02T11:29:29.401Z,61.30
2018-08-02T11:31:58.572Z,62.60
2018-08-02T11:34:27.671Z,65.70
2018-08-02T11:36:56.762Z,64.00
2018-08-02T11:39:25.958Z,62.90
2018-08-02T11:41:54.990Z,64.30
2018-08-02T11:44:24.156Z,68.40
2018-08-02T11:46:53.200Z,61.00
2018-08-02T11:49:22.360Z,62.00
2018-08-02T11:54:20.257Z,59.80
2018-08-02T11:56:49.320Z,58.60
2018-08-02T11:59:18.572Z,63.40
2018-08-02T12:01:47.642Z,60.90
2018-08-02T12:06:45.465Z,55.20
2018-08-02T12:09:14.536Z,56.00
2018-08-02T12:11:43.543Z,62.40
2018-08-02T12:14:12.578Z,71.40
2018-08-02T12:16:42.531Z,58.10
2018-08-02T12:19:11.589Z,59.40
2018-08-02T12:21:40.545Z,57.00
2018-08-02T12:24:09.671Z,53.40
2018-08-02T12:26:38.719Z,60.00
2018-08-02T12:29:07.779Z,63.70
2018-08-02T12:31:36.890Z,65.60
2018-08-02T12:34:05.952Z,71.20
2018-08-02T12:36:35.034Z,64.70
2018-08-02T12:39:05.695Z,69.90
2018-08-02T12:41:34.812Z,68.40
2018-08-02T12:44:03.979Z,71.90
2018-08-02T12:46:33.279Z,65.40
2018-08-02T12:49:02.329Z,64.40
2018-08-02T12:51:31.424Z,66.00
2018-08-02T12:54:00.401Z,61.40
2018-08-02T12:56:29.422Z,62.70
2018-08-02T12:58:58.544Z,56.00
2018-08-02T13:01:27.664Z,58.30
2018-08-02T13:03:56.620Z,53.80
2018-08-02T13:06:25.730Z,54.50
2018-08-02T13:08:54.763Z,51.80
2018-08-02T13:11:23.976Z,52.80
2018-08-02T13:13:53.039Z,52.30
2018-08-02T13:16:22.135Z,50.70
2018-08-02T13:18:51.208Z,54.50
2018-08-02T13:21:20.270Z,51.60
2018-08-02T13:23:49.265Z,48.30
2018-08-02T13:26:18.358Z,47.50
2018-08-02T13:28:47.568Z,46.90
2018-08-02T13:31:16.558Z,45.90
2018-08-02T13:33:45.747Z,44.00
2018-08-02T13:36:14.815Z,45.10
2018-08-02T13:38:43.872Z,47.10
2018-08-02T13:41:12.933Z,46.70
2018-08-02T13:43:41.979Z,44.50
2018-08-02T13:46:11.076Z,44.40
2018-08-02T13:48:40.217Z,44.80
2018-08-02T13:51:09.840Z,47.60
2018-08-02T13:53:38.876Z,48.40
2018-08-02T13:56:07.881Z,45.00
2018-08-02T13:58:37.013Z,46.70
2018-08-02T14:01:06.090Z,43.30
2018-08-02T14:03:35.111Z,43.00
2018-08-02T14:06:04.272Z,48.30
2018-08-02T14:08:33.408Z,48.60
2018-08-02T14:11:02.465Z,50.10
2018-08-02T14:13:31.477Z,51.30
2018-08-02T14:16:00.526Z,50.10
2018-08-02T14:18:29.541Z,50.10
2018-08-02T14:20:58.607Z,48.20
2018-08-02T14:23:27.628Z,49.80
2018-08-02T14:25:56.650Z,45.50
2018-08-02T14:28:25.734Z,45.50
2018-08-02T14:30:54.755Z,45.50
2018-08-02T14:33:23.746Z,48.90
2018-08-02T14:35:52.772Z,49.20
2018-08-02T14:38:21.815Z,48.70
2018-08-02T14:40:50.850Z,50.50
2018-08-02T14:43:19.872Z,50.70
2018-08-02T14:45:48.883Z,50.40
2018-08-02T14:48:17.899Z,52.00
2018-08-02T14:50:46.905Z,50.10
2018-08-02T14:53:15.914Z,50.30
2018-08-02T14:55:44.897Z,48.30
2018-08-02T14:58:13.878Z,47.90
2018-08-02T15:00:42.959Z,49.40
2018-08-02T15:03:11.922Z,48.90
2018-08-02T15:05:40.986Z,48.60
2018-08-02T15:08:10.033Z,48.30
2018-08-02T15:10:38.983Z,48.60
2018-08-02T15:13:08.005Z,49.60
2018-08-02T15:15:37.024Z,50.00
2018-08-02T15:18:06.101Z,50.80
2018-08-02T15:20:35.413Z,51.20
2018-08-02T15:23:04.425Z,52.50
2018-08-02T15:25:33.451Z,52.70
2018-08-02T15:28:02.496Z,53.50
2018-08-02T15:30:31.505Z,53.00
2018-08-02T15:33:00.549Z,53.60
2018-08-02T15:35:29.588Z,53.90
2018-08-02T15:37:58.719Z,54.00
2018-08-02T15:40:27.740Z,53.50
2018-08-02T15:42:56.960Z,55.70
2018-08-02T15:45:26.121Z,53.80
2018-08-02T15:47:55.169Z,55.40
2018-08-02T15:50:24.356Z,55.10
2018-08-02T15:52:53.465Z,56.10
2018-08-02T15:55:22.498Z,58.60
2018-08-02T15:57:51.534Z,57.10
2018-08-02T16:00:20.598Z,57.90
2018-08-02T16:02:49.643Z,58.80
2018-08-02T16:05:18.731Z,58.50
2018-08-02T16:07:47.810Z,56.60
2018-08-02T16:10:16.851Z,54.90
2018-08-02T16:12:46.037Z,54.00
2018-08-02T16:15:15.301Z,52.80
2018-08-02T16:17:44.306Z,53.70
2018-08-02T16:20:13.314Z,53.70
2018-08-02T16:22:42.407Z,55.40
2018-08-02T16:25:11.440Z,51.50
2018-08-02T16:27:40.494Z,52.70
2018-08-02T16:30:09.784Z,51.90
2018-08-02T16:32:38.792Z,52.50
2018-08-02T16:35:07.986Z,52.30
2018-08-02T16:37:37.099Z,53.70
2018-08-02T16:40:06.373Z,53.80
2018-08-02T16:42:35.473Z,54.20
2018-08-02T16:45:04.854Z,54.40
2018-08-02T16:47:33.980Z,54.70
2018-08-02T16:50:03.074Z,56.50
2018-08-02T16:52:32.152Z,55.50
2018-08-02T16:55:01.202Z,55.10
2018-08-02T16:57:30.291Z,55.80
2018-08-02T16:59:59.329Z,54.30
2018-08-02T17:02:28.409Z,53.30
2018-08-02T17:04:57.359Z,56.10
2018-08-02T17:07:26.501Z,56.70
2018-08-02T17:09:55.547Z,55.80
2018-08-02T17:14:53.544Z,57.80
2018-08-02T17:17:22.625Z,58.90
2018-08-02T17:19:51.590Z,59.50
2018-08-02T17:22:21.621Z,63.90
2018-08-02T17:24:50.703Z,59.70
2018-08-02T17:27:19.724Z,64.20
2018-08-02T17:29:48.733Z,62.70
2018-08-02T17:32:18.357Z,61.20
2018-08-02T17:34:47.368Z,60.70
2018-08-02T17:37:16.409Z,65.10
2018-08-02T17:39:45.452Z,65.30
2018-08-02T17:42:14.663Z,63.60
2018-08-02T17:44:43.733Z,65.60
2018-08-02T17:47:12.777Z,66.10
2018-08-02T17:49:41.832Z,68.00
2018-08-02T17:52:10.859Z,65.60
2018-08-02T17:54:39.867Z,68.70
2018-08-02T17:57:08.903Z,70.50
2018-08-02T17:59:38.279Z,70.10
2018-08-02T18:02:07.553Z,71.70
2018-08-02T18:07:05.954Z,71.80
2018-08-02T18:12:03.772Z,73.60
2018-08-02T18:14:32.829Z,75.30
2018-08-02T18:17:01.829Z,75.90
2018-08-02T18:22:00.423Z,78.30
2018-08-02T18:26:58.275Z,80.50
2018-08-02T18:29:27.375Z,81.50
2018-08-02T18:31:56.784Z,83.30
2018-08-02T18:34:25.809Z,87.30
2018-08-02T18:36:54.925Z,87.50
2018-08-02T18:41:52.654Z,88.50
2018-08-02T18:44:21.826Z,88.00
2018-08-02T18:46:50.953Z,90.60
2018-08-02T18:51:48.580Z,90.70
2018-08-02T18:54:17.701Z,90.20
2018-08-02T18:56:46.735Z,90.50
2018-08-02T19:01:44.414Z,91.70
2018-08-02T19:04:13.440Z,93.00
2018-08-02T19:06:42.451Z,92.80
2018-08-02T19:09:11.484Z,93.20
2018-08-02T19:11:40.674Z,93.40
2018-08-02T19:14:09.697Z,93.30
2018-08-02T19:16:38.796Z,93.20
2018-08-02T19:19:07.934Z,93.20
2018-08-02T19:21:37.239Z,93.70
2018-08-02T19:24:06.389Z,94.00
2018-08-02T19:26:35.391Z,94.40
2018-08-02T19:29:04.444Z,95.00
2018-08-02T19:31:33.563Z,96.10
2018-08-02T19:34:02.599Z,96.80
2018-08-02T19:36:31.668Z,96.20
2018-08-02T19:39:00.668Z,96.60
2018-08-02T19:41:29.731Z,95.90
2018-08-02T19:43:58.748Z,96.70
2018-08-02T19:46:27.802Z,96.60
2018-08-02T19:48:56.878Z,96.70
2018-08-02T19:51:25.975Z,96.40
2018-08-02T19:53:55.065Z,96.00
2018-08-02T19:56:24.094Z,96.70
2018-08-02T19:58:53.182Z,97.50
2018-08-02T20:01:22.348Z,97.30
2018-08-02T20:03:51.441Z,97.80
2018-08-02T20:06:20.531Z,98.20
2018-08-02T20:08:49.552Z,98.50
2018-08-02T20:11:18.559Z,98.50
2018-08-02T20:16:16.533Z,98.50
2018-08-02T20:18:45.492Z,98.70
2018-08-02T20:21:14.546Z,99.40
2018-08-02T20:23:43.709Z,98.60
2018-08-02T20:26:12.784Z,99.10
2018-08-02T20:28:41.797Z,99.10
2018-08-02T20:31:10.840Z,99.60
2018-08-02T20:33:39.857Z,99.80
2018-08-02T20:36:09.018Z,99.80
2018-08-02T20:38:38.063Z,99.90
2018-08-02T20:41:07.251Z,99.90
2018-08-02T20:43:36.275Z,99.90
2018-08-02T20:46:05.366Z,99.90
2018-08-02T20:48:34.393Z,99.90
2018-08-02T20:51:03.437Z,99.90
2018-08-02T20:53:32.430Z,99.90
2018-08-02T20:56:02.156Z,99.90
2018-08-02T20:58:31.276Z,99.90
2018-08-02T21:01:00.294Z,99.90
2018-08-02T21:03:29.358Z,99.90
2018-08-02T21:05:58.390Z,99.90
2018-08-02T21:08:27.430Z,99.90
2018-08-02T21:13:25.099Z,99.90
2018-08-02T21:15:54.161Z,99.90
2018-08-02T21:18:23.323Z,99.90
2018-08-02T21:20:52.377Z,99.90
2018-08-02T21:23:21.369Z,99.90
2018-08-02T21:28:19.054Z,99.90
2018-08-02T21:30:48.120Z,99.90
2018-08-02T21:33:17.167Z,99.90
2018-08-02T21:38:14.865Z,99.90
2018-08-02T21:40:43.970Z,99.90
2018-08-02T21:43:12.993Z,99.90
2018-08-02T21:45:42.028Z,99.90
2018-08-02T21:48:11.029Z,99.90
2018-08-02T21:50:40.090Z,99.90
2018-08-02T21:53:09.102Z,99.90
2018-08-02T21:55:38.122Z,99.90
2018-08-02T21:58:07.465Z,99.90
2018-08-02T22:00:37.708Z,99.90
2018-08-02T22:03:07.278Z,99.90
2018-08-02T22:05:38.187Z,99.90
2018-08-02T22:08:08.113Z,99.90
2018-08-02T22:10:37.214Z,99.90
2018-08-02T22:13:11.542Z,99.90
2018-08-02T22:15:46.003Z,99.90
2018-08-02T22:18:15.061Z,99.90
2018-08-02T22:20:45.017Z,99.90
2018-08-02T22:23:14.071Z,99.90
2018-08-02T22:25:43.106Z,99.90
2018-08-02T22:30:40.841Z,99.90
2018-08-02T22:33:09.867Z,99.90
2018-08-02T22:35:38.897Z,99.90
2018-08-02T22:38:07.901Z,99.90
2018-08-02T22:40:36.991Z,99.90
2018-08-02T22:43:06.266Z,99.90
2018-08-02T22:45:35.353Z,99.90
2018-08-02T22:48:04.438Z,99.90
2018-08-02T22:50:33.489Z,99.90
2018-08-02T22:53:02.517Z,99.90
2018-08-02T22:55:31.656Z,99.90
2018-08-02T22:58:00.700Z,99.90
2018-08-02T23:00:29.739Z,99.90
2018-08-02T23:02:59.361Z,99.90
2018-08-02T23:05:28.379Z,99.90
2018-08-02T23:07:57.501Z,99.90
2018-08-02T23:10:26.513Z,99.90
2018-08-02T23:15:24.344Z,99.90
2018-08-02T23:17:53.349Z,99.90
2018-08-02T23:20:22.357Z,99.90
2018-08-02T23:22:52.218Z,99.90
2018-08-02T23:25:22.481Z,99.90
2018-08-02T23:27:51.639Z,99.90
2018-08-02T23:30:20.644Z,99.90
2018-08-02T23:32:49.656Z,99.90
2018-08-02T23:35:18.696Z,99.90
2018-08-02T23:40:16.325Z,99.90
2018-08-02T23:42:45.375Z,99.90
2018-08-02T23:45:14.357Z,99.90
2018-08-02T23:47:43.381Z,99.90
2018-08-02T23:50:12.418Z,99.90
2018-08-02T23:52:41.407Z,99.90
2018-08-02T23:55:10.413Z,99.90
2018-08-02T23:57:39.435Z,99.90
